This is the latest recevied weather packets stored in our database for station/object HA5CD-6. If no packets are shown the sender has not sent any weather packets the latest 10 day(s).
| Time | Temp. | Humidity | Pressure | Rain* | Wind** | Luminosity | Snow |
|---|---|---|---|---|---|---|---|
| 1777639284 | 20.56° C | 26% | 1002 hPa | - | - | - | - |
| 1777638678 | 22.22° C | 23% | 1002 hPa | - | - | - | - |
| 1777638078 | 24.44° C | 20% | 1002 hPa | - | - | - | - |
| 1777636878 | 23.89° C | 23% | 1003 hPa | - | - | - | - |
| 1777636279 | 19.44° C | 26% | 1003 hPa | - | - | - | - |
| 1777635678 | 21.67° C | 23% | 1003 hPa | - | - | - | - |
| 1777635077 | 22.22° C | 25% | 1003 hPa | - | - | - | - |
| 1777634477 | 19.44° C | 26% | 1003 hPa | - | - | - | - |
| 1777633277 | 23.33° C | 23% | 1003 hPa | - | - | - | - |
| 1777632677 | 21.67° C | 23% | 1003 hPa | - | - | - | - |
| 1777632077 | 20° C | 25% | 1003 hPa | - | - | - | - |
| 1777631477 | 23.33° C | 22% | 1003 hPa | - | - | - | - |
| 1777630877 | 21.11° C | 22% | 1004 hPa | - | - | - | - |
| 1777630277 | 21.67° C | 23% | 1004 hPa | - | - | - | - |
| 1777629677 | 20.56° C | 24% | 1004 hPa | - | - | - | - |
| 1777629076 | 21.11° C | 23% | 1004 hPa | - | - | - | - |
| 1777628476 | 21.11° C | 22% | 1004 hPa | - | - | - | - |
| 1777627876 | 18.89° C | 24% | 1004 hPa | - | - | - | - |
| 1777627275 | 20.56° C | 22% | 1004 hPa | - | - | - | - |
| 1777626675 | 24.44° C | 19% | 1004 hPa | - | - | - | - |
| 1777626079 | 25.56° C | 18% | 1004 hPa | - | - | - | - |
| 1777625475 | 25° C | 19% | 1004 hPa | - | - | - | - |
| 1777624875 | 23.89° C | 19% | 1004 hPa | - | - | - | - |
| 1777624275 | 24.44° C | 19% | 1004 hPa | - | - | - | - |
| 1777623675 | 22.78° C | 18% | 1004 hPa | - | - | - | - |
* Rain since midnight (hover to see other rain measurements)
** Current wind speed in m/s (hover to see current wind gust speed)